createdAt,value
2022-08-12T00:02:06.250Z,1.70
2022-08-12T00:07:31.374Z,1.50
2022-08-12T00:12:55.161Z,1.77
2022-08-12T00:18:18.966Z,2.00
2022-08-12T00:23:42.331Z,1.83
2022-08-12T00:29:06.173Z,1.73
2022-08-12T00:34:34.939Z,1.40
2022-08-12T00:39:59.952Z,1.73
2022-08-12T00:45:06.716Z,1.80
2022-08-12T00:50:17.659Z,1.70
2022-08-12T00:55:23.146Z,1.70
2022-08-12T01:00:28.867Z,1.80
2022-08-12T01:05:53.501Z,1.70
2022-08-12T01:11:17.282Z,1.53
2022-08-12T01:16:23.251Z,1.80
2022-08-12T01:21:47.143Z,1.77
2022-08-12T01:26:55.263Z,1.77
2022-08-12T01:32:03.267Z,1.87
2022-08-12T01:37:10.906Z,1.37
2022-08-12T01:42:19.467Z,2.07
2022-08-12T01:47:31.202Z,1.63
2022-08-12T01:52:39.926Z,1.90
2022-08-12T01:57:59.518Z,1.83
2022-08-12T02:03:11.452Z,1.97
2022-08-12T02:08:58.837Z,1.63
2022-08-12T02:14:31.650Z,2.10
2022-08-12T02:19:47.338Z,2.03
2022-08-12T02:24:56.182Z,2.10
2022-08-12T02:30:03.240Z,2.10
2022-08-12T02:35:15.043Z,1.80
2022-08-12T02:40:22.112Z,1.87
2022-08-12T02:45:30.681Z,1.80
2022-08-12T02:50:39.233Z,1.80
2022-08-12T02:55:48.523Z,2.20
2022-08-12T03:00:54.550Z,1.63
2022-08-12T03:06:03.409Z,1.73
2022-08-12T03:11:30.091Z,2.10
2022-08-12T03:16:38.299Z,2.13
2022-08-12T03:21:55.533Z,1.93
2022-08-12T03:26:55.322Z,2.00
2022-08-12T03:32:05.090Z,1.80
2022-08-12T03:37:11.475Z,1.90
2022-08-12T03:42:22.117Z,2.07
2022-08-12T03:47:52.255Z,1.90
2022-08-12T03:53:16.257Z,2.20
2022-08-12T03:58:41.376Z,1.97
2022-08-12T04:03:53.501Z,1.80
2022-08-12T04:09:00.397Z,2.13
2022-08-12T04:14:16.572Z,1.90
2022-08-12T04:19:24.839Z,2.17
2022-08-12T04:24:33.972Z,1.70
2022-08-12T04:30:21.225Z,2.20
2022-08-12T04:34:48.181Z,2.77
2022-08-12T04:39:54.998Z,2.53
2022-08-12T04:45:01.458Z,2.30
2022-08-12T04:50:35.117Z,2.60
2022-08-12T04:55:17.303Z,2.60
2022-08-12T05:00:23.395Z,2.00
2022-08-12T05:05:35.201Z,2.20
2022-08-12T05:10:37.067Z,2.33
2022-08-12T05:16:04.570Z,2.17
2022-08-12T05:20:53.088Z,2.90
2022-08-12T05:25:59.393Z,2.17
2022-08-12T05:31:05.449Z,2.70
2022-08-12T05:36:14.830Z,2.83
2022-08-12T05:41:20.851Z,2.57
2022-08-12T05:46:28.794Z,2.50
2022-08-12T05:51:40.263Z,2.43
2022-08-12T05:56:43.653Z,2.27
2022-08-12T06:02:12.450Z,2.53
2022-08-12T06:06:56.716Z,2.33
2022-08-12T06:12:06.225Z,2.50
2022-08-12T06:17:09.685Z,2.37
2022-08-12T06:22:15.691Z,2.40
2022-08-12T06:27:21.887Z,2.20
2022-08-12T06:32:28.727Z,2.77
2022-08-12T06:37:42.336Z,4.53
2022-08-12T06:42:49.596Z,2.27
2022-08-12T06:47:56.793Z,2.40
2022-08-12T06:53:04.103Z,2.33
2022-08-12T06:58:10.773Z,2.90
2022-08-12T07:03:22.913Z,2.60
2022-08-12T07:08:29.202Z,2.20
2022-08-12T07:14:02.368Z,2.80
2022-08-12T07:18:51.667Z,2.57
2022-08-12T07:23:57.241Z,2.47
2022-08-12T07:29:02.914Z,2.60
2022-08-12T07:34:09.499Z,1.90
2022-08-12T07:39:15.003Z,2.10
2022-08-12T07:44:21.446Z,2.37
2022-08-12T07:49:28.345Z,2.23
2022-08-12T07:54:33.813Z,2.40
2022-08-12T07:59:40.187Z,2.47
2022-08-12T08:04:56.511Z,2.20
2022-08-12T08:10:05.082Z,1.93
2022-08-12T08:15:11.836Z,2.00
2022-08-12T08:20:18.562Z,1.73
2022-08-12T08:25:36.044Z,2.40
2022-08-12T08:30:37.676Z,2.03
2022-08-12T08:35:47.126Z,2.03
2022-08-12T08:41:11.921Z,2.03
2022-08-12T08:46:17.476Z,2.10
2022-08-12T08:51:24.889Z,1.83
2022-08-12T08:56:30.657Z,1.90
2022-08-12T09:01:37.333Z,2.10
2022-08-12T09:06:53.602Z,2.00
2022-08-12T09:12:11.889Z,1.93
2022-08-12T09:17:21.204Z,2.07
2022-08-12T09:33:04.398Z,1.93
2022-08-12T09:37:58.241Z,1.80
2022-08-12T09:43:18.747Z,1.80
2022-08-12T09:48:24.575Z,2.47
2022-08-12T09:53:38.418Z,1.80
2022-08-12T09:58:57.008Z,1.80
2022-08-12T10:04:03.054Z,1.83
2022-08-12T10:08:53.587Z,2.10
2022-08-12T10:14:00.272Z,2.00
2022-08-12T10:19:06.740Z,1.60
2022-08-12T10:24:20.884Z,1.67
2022-08-12T10:30:38.700Z,1.70
2022-08-12T10:34:53.429Z,2.07
2022-08-12T10:40:00.943Z,1.57
2022-08-12T10:45:09.690Z,1.60
2022-08-12T10:50:28.271Z,1.80
2022-08-12T10:55:24.217Z,1.60
2022-08-12T11:00:35.635Z,1.60
2022-08-12T11:07:10.319Z,1.60
2022-08-12T11:10:47.667Z,1.60
2022-08-12T11:16:03.317Z,2.03
2022-08-12T11:21:02.409Z,1.70
2022-08-12T11:26:09.716Z,1.50
2022-08-12T11:31:15.248Z,1.40
2022-08-12T11:36:22.455Z,1.67
2022-08-12T11:41:32.091Z,1.73
2022-08-12T11:46:40.244Z,1.63
2022-08-12T11:51:45.878Z,1.70
2022-08-12T11:56:59.381Z,1.60
2022-08-12T12:02:05.270Z,1.70
2022-08-12T12:07:11.362Z,1.50
2022-08-12T12:12:15.429Z,2.20
2022-08-12T12:17:21.089Z,1.40
2022-08-12T12:22:31.079Z,1.52
2022-08-12T12:28:05.079Z,1.77
2022-08-12T12:32:56.535Z,1.80
2022-08-12T12:38:12.157Z,1.98
2022-08-12T12:43:12.907Z,1.62
2022-08-12T12:48:21.828Z,1.60
2022-08-12T12:54:08.257Z,1.60
2022-08-12T12:58:34.701Z,1.47
2022-08-12T13:03:49.027Z,1.60
2022-08-12T13:08:48.798Z,1.50
2022-08-12T13:14:08.703Z,1.45
2022-08-12T13:19:02.078Z,1.75
2022-08-12T13:24:10.470Z,1.70
2022-08-12T13:29:15.330Z,1.60
2022-08-12T13:34:33.549Z,1.80
2022-08-12T13:39:30.581Z,1.80
2022-08-12T13:44:36.270Z,1.52
2022-08-12T13:49:55.417Z,1.50
2022-08-12T13:54:56.677Z,1.50
2022-08-12T14:00:00.711Z,1.72
2022-08-12T14:05:38.265Z,1.80
2022-08-12T14:10:30.182Z,1.45
2022-08-12T14:15:37.654Z,1.70
2022-08-12T14:20:47.772Z,2.12
2022-08-12T14:25:53.867Z,1.45
2022-08-12T14:31:03.128Z,1.57
2022-08-12T14:36:12.896Z,1.62
2022-08-12T14:41:21.096Z,1.80
2022-08-12T14:46:28.598Z,1.40
2022-08-12T14:52:43.925Z,1.80
2022-08-12T14:57:19.379Z,1.85
2022-08-12T15:01:54.598Z,2.05
2022-08-12T15:07:00.228Z,1.82
2022-08-12T15:12:14.512Z,1.98
2022-08-12T15:17:37.895Z,1.80
2022-08-12T15:22:37.267Z,1.80
2022-08-12T15:27:31.574Z,2.13
2022-08-12T15:32:37.842Z,2.47
2022-08-12T15:38:09.081Z,2.22
2022-08-12T15:42:52.543Z,2.20
2022-08-12T15:48:04.641Z,2.65
2022-08-12T15:53:14.484Z,2.35
2022-08-12T15:58:16.755Z,1.97
2022-08-12T16:03:25.974Z,2.67
2022-08-12T16:08:34.900Z,1.90
2022-08-12T16:13:44.028Z,2.30
2022-08-12T16:18:50.029Z,2.70
2022-08-12T16:23:58.133Z,2.40
2022-08-12T16:29:15.453Z,2.20
2022-08-12T16:34:25.900Z,2.30
2022-08-12T16:39:19.279Z,2.30
2022-08-12T16:44:32.598Z,2.42
2022-08-12T16:49:36.696Z,2.27
2022-08-12T16:54:42.679Z,1.92
2022-08-12T16:59:54.557Z,1.95
2022-08-12T17:04:56.526Z,1.90
2022-08-12T17:10:02.467Z,1.98
2022-08-12T17:15:50.962Z,1.98
2022-08-12T17:20:34.981Z,1.70
2022-08-12T17:25:27.545Z,2.15
2022-08-12T17:30:35.584Z,1.90
2022-08-12T17:35:49.964Z,1.80
2022-08-12T17:40:52.326Z,1.70
2022-08-12T17:45:58.872Z,2.00
2022-08-12T17:51:08.418Z,2.00
2022-08-12T17:56:15.193Z,1.90
2022-08-12T18:01:22.401Z,2.10
2022-08-12T18:06:28.543Z,1.90
2022-08-12T18:12:05.639Z,1.97
2022-08-12T18:17:02.404Z,1.90
2022-08-12T18:22:08.249Z,1.87
2022-08-12T18:27:30.309Z,2.00
2022-08-12T18:32:35.039Z,1.90
2022-08-12T18:37:41.993Z,2.13
2022-08-12T18:42:41.076Z,1.60
2022-08-12T18:47:51.773Z,2.30
2022-08-12T18:52:57.550Z,2.20
2022-08-12T18:58:06.711Z,2.23
2022-08-12T19:03:23.675Z,2.00
2022-08-12T19:08:26.037Z,2.70
2022-08-12T19:13:49.909Z,2.00
2022-08-12T19:18:55.885Z,2.10
2022-08-12T19:24:22.352Z,2.10
2022-08-12T19:29:29.175Z,3.23
2022-08-12T19:40:09.871Z,2.50
2022-08-12T19:44:58.920Z,2.40
2022-08-12T19:50:04.849Z,3.10
2022-08-12T19:55:19.458Z,2.52
2022-08-12T20:00:20.752Z,2.37
2022-08-12T20:06:06.584Z,2.70
2022-08-12T20:10:37.141Z,2.67
2022-08-12T20:15:45.044Z,2.60
2022-08-12T20:20:50.096Z,2.93
2022-08-12T20:26:01.923Z,2.80
2022-08-12T20:31:04.380Z,2.57
2022-08-12T20:36:40.769Z,2.50
2022-08-12T20:41:22.179Z,1.97
2022-08-12T20:46:34.484Z,2.33
2022-08-12T20:51:40.603Z,3.00
2022-08-12T20:56:48.659Z,2.57
2022-08-12T21:01:54.630Z,2.77
2022-08-12T21:07:09.051Z,2.50
2022-08-12T21:12:28.617Z,2.47
2022-08-12T21:17:23.544Z,2.90
2022-08-12T21:22:32.607Z,2.50
2022-08-12T21:27:59.337Z,2.40
2022-08-12T21:32:57.863Z,3.33
2022-08-12T21:38:05.793Z,3.00
2022-08-12T21:43:12.671Z,2.90
2022-08-12T21:48:21.518Z,2.63
2022-08-12T21:53:31.554Z,3.07
2022-08-12T21:58:35.195Z,2.53
2022-08-12T22:04:03.465Z,2.70
2022-08-12T22:09:15.222Z,2.50
2022-08-12T22:14:22.003Z,2.57
2022-08-12T22:19:23.707Z,2.80
2022-08-12T22:24:31.009Z,2.67
2022-08-12T22:29:55.180Z,2.73
2022-08-12T22:35:24.246Z,2.17
2022-08-12T22:40:26.061Z,2.77
2022-08-12T22:45:56.594Z,2.27
2022-08-12T22:50:59.328Z,2.80
2022-08-12T22:56:08.738Z,2.30
2022-08-12T23:01:51.592Z,2.20
2022-08-12T23:06:25.742Z,2.43
2022-08-12T23:11:33.663Z,2.33
2022-08-12T23:16:40.886Z,2.77
2022-08-12T23:22:05.989Z,2.47
2022-08-12T23:27:21.228Z,2.90
2022-08-12T23:32:35.938Z,2.37
2022-08-12T23:37:47.814Z,2.20
2022-08-12T23:42:44.300Z,2.03
2022-08-12T23:47:54.798Z,2.20
2022-08-12T23:53:05.709Z,2.20
2022-08-12T23:58:20.653Z,2.03
